createdAt,value
2023-05-23T00:01:40.254Z,8.52
2023-05-23T00:04:07.440Z,8.77
2023-05-23T00:06:34.604Z,8.75
2023-05-23T00:09:02.566Z,8.05
2023-05-23T00:11:29.414Z,9.07
2023-05-23T00:14:01.101Z,8.20
2023-05-23T00:16:28.675Z,8.25
2023-05-23T00:18:57.707Z,7.95
2023-05-23T00:21:24.682Z,8.85
2023-05-23T00:23:51.467Z,9.23
2023-05-23T00:26:18.340Z,8.43
2023-05-23T00:28:45.307Z,8.45
2023-05-23T00:31:12.140Z,8.77
2023-05-23T00:33:39.087Z,9.05
2023-05-23T00:36:06.244Z,8.07
2023-05-23T00:38:33.145Z,9.35
2023-05-23T00:41:00.255Z,8.80
2023-05-23T00:43:27.407Z,9.07
2023-05-23T00:45:54.196Z,9.73
2023-05-23T00:48:21.498Z,12.88
2023-05-23T00:50:48.500Z,9.82
2023-05-23T00:53:15.389Z,9.35
2023-05-23T00:55:42.359Z,9.25
2023-05-23T00:58:09.823Z,9.48
2023-05-23T01:00:38.659Z,9.15
2023-05-23T01:03:05.708Z,9.10
2023-05-23T01:05:32.640Z,9.98
2023-05-23T01:07:59.756Z,9.32
2023-05-23T01:10:31.137Z,9.38
2023-05-23T01:13:20.738Z,9.20
2023-05-23T01:16:19.929Z,9.82
2023-05-23T01:18:58.409Z,9.77
2023-05-23T01:21:26.877Z,9.90
2023-05-23T01:24:11.648Z,8.85
2023-05-23T01:27:16.719Z,9.18
2023-05-23T01:29:53.287Z,9.07
2023-05-23T01:32:23.041Z,9.00
2023-05-23T01:34:56.000Z,9.80
2023-05-23T01:37:22.767Z,9.95
2023-05-23T01:39:49.543Z,10.18
2023-05-23T01:42:16.589Z,10.50
2023-05-23T01:44:46.888Z,10.05
2023-05-23T01:47:15.326Z,9.75
2023-05-23T01:49:44.916Z,9.40
2023-05-23T01:52:13.312Z,9.95
2023-05-23T01:54:42.678Z,9.48
2023-05-23T01:57:10.906Z,10.52
2023-05-23T01:59:38.613Z,9.70
2023-05-23T02:02:06.032Z,10.48
2023-05-23T02:04:32.920Z,10.48
2023-05-23T02:06:59.702Z,10.35
2023-05-23T02:09:26.584Z,11.45
2023-05-23T02:11:53.624Z,10.68
2023-05-23T02:14:21.208Z,10.48
2023-05-23T02:16:48.029Z,11.20
2023-05-23T02:19:14.832Z,11.10
2023-05-23T02:21:41.809Z,10.88
2023-05-23T02:24:08.647Z,11.40
2023-05-23T02:26:35.499Z,10.77
2023-05-23T02:29:02.350Z,11.27
2023-05-23T02:31:29.190Z,11.43
2023-05-23T02:33:55.979Z,10.77
2023-05-23T02:36:22.807Z,11.43
2023-05-23T02:38:49.654Z,10.93
2023-05-23T02:41:16.832Z,11.30
2023-05-23T02:43:46.947Z,12.07
2023-05-23T02:46:13.970Z,12.57
2023-05-23T02:48:40.899Z,12.00
2023-05-23T02:51:07.839Z,12.88
2023-05-23T02:53:34.704Z,10.98
2023-05-23T02:56:01.647Z,11.77
2023-05-23T02:58:28.433Z,11.80
2023-05-23T03:00:55.200Z,12.32
2023-05-23T03:03:22.099Z,12.43
2023-05-23T03:05:49.240Z,12.48
2023-05-23T03:08:16.125Z,11.30
2023-05-23T03:10:43.050Z,10.65
2023-05-23T03:13:09.864Z,10.98
2023-05-23T03:15:36.713Z,10.07
2023-05-23T03:18:06.908Z,10.10
2023-05-23T03:20:33.930Z,10.75
2023-05-23T03:23:00.820Z,10.38
2023-05-23T03:25:27.690Z,8.85
2023-05-23T03:27:54.574Z,9.45
2023-05-23T03:30:21.768Z,8.82
2023-05-23T03:32:48.662Z,8.75
2023-05-23T03:35:15.679Z,9.02
2023-05-23T03:37:42.529Z,8.73
2023-05-23T03:40:09.932Z,8.90
2023-05-23T03:42:39.555Z,8.85
2023-05-23T03:45:07.065Z,8.10
2023-05-23T03:47:33.972Z,8.30
2023-05-23T03:50:00.920Z,8.43
2023-05-23T03:52:27.773Z,8.60
2023-05-23T03:54:54.652Z,8.55
2023-05-23T03:57:21.760Z,8.60
2023-05-23T03:59:48.611Z,8.75
2023-05-23T04:02:15.559Z,8.45
2023-05-23T04:04:42.403Z,9.15
2023-05-23T04:07:10.149Z,7.82
2023-05-23T04:09:37.009Z,8.85
2023-05-23T04:12:03.982Z,9.32
2023-05-23T04:14:33.723Z,9.15
2023-05-23T04:17:01.191Z,9.02
2023-05-23T04:19:28.163Z,9.13
2023-05-23T04:21:54.937Z,8.63
2023-05-23T04:24:21.787Z,8.18
2023-05-23T04:26:48.633Z,9.00
2023-05-23T04:29:15.469Z,8.82
2023-05-23T04:31:42.417Z,8.30
2023-05-23T04:34:09.805Z,8.52
2023-05-23T04:36:38.158Z,8.43
2023-05-23T04:39:08.304Z,8.32
2023-05-23T04:41:36.630Z,7.63
2023-05-23T04:44:03.625Z,7.63
2023-05-23T04:46:30.375Z,7.47
2023-05-23T04:48:58.778Z,7.63
2023-05-23T04:51:25.605Z,7.60
2023-05-23T04:53:52.862Z,7.63
2023-05-23T04:56:22.785Z,7.10
2023-05-23T04:58:49.591Z,7.20
2023-05-23T05:01:16.393Z,7.20
2023-05-23T05:03:43.223Z,7.65
2023-05-23T05:06:10.143Z,7.05
2023-05-23T05:08:36.982Z,7.85
2023-05-23T05:11:03.867Z,8.35
2023-05-23T05:13:30.629Z,7.63
2023-05-23T05:15:57.431Z,7.90
2023-05-23T05:18:24.565Z,7.97
2023-05-23T05:20:51.309Z,7.47
2023-05-23T05:23:18.076Z,8.07
2023-05-23T05:25:44.980Z,7.68
2023-05-23T05:28:11.725Z,8.10
2023-05-23T05:30:39.073Z,7.18
2023-05-23T05:33:07.963Z,6.80
2023-05-23T05:35:35.393Z,6.82
2023-05-23T05:38:05.070Z,7.18
2023-05-23T05:40:34.937Z,7.85
2023-05-23T05:43:01.748Z,7.05
2023-05-23T05:45:28.552Z,8.05
2023-05-23T05:47:55.436Z,6.50
2023-05-23T05:50:22.245Z,6.55
2023-05-23T05:52:48.987Z,6.68
2023-05-23T05:55:15.813Z,6.60
2023-05-23T05:57:42.778Z,6.95
2023-05-23T06:00:12.695Z,7.40
2023-05-23T06:02:40.564Z,6.55
2023-05-23T06:05:08.085Z,6.72
2023-05-23T06:07:36.012Z,6.47
2023-05-23T06:10:03.822Z,6.95
2023-05-23T06:12:30.765Z,6.75
2023-05-23T06:14:57.558Z,7.13
2023-05-23T06:17:24.456Z,6.47
2023-05-23T06:19:51.454Z,5.95
2023-05-23T06:22:18.586Z,9.15
2023-05-23T06:24:47.041Z,6.78
2023-05-23T06:27:13.971Z,6.90
2023-05-23T06:29:40.800Z,6.63
2023-05-23T06:32:07.709Z,5.85
2023-05-23T06:34:34.684Z,5.57
2023-05-23T06:37:01.469Z,5.45
2023-05-23T06:39:28.248Z,6.03
2023-05-23T06:41:55.158Z,6.47
2023-05-23T06:44:21.913Z,6.35
2023-05-23T06:47:15.611Z,6.32
2023-05-23T06:49:43.287Z,6.00
2023-05-23T06:52:10.115Z,5.70
2023-05-23T06:54:36.917Z,5.85
2023-05-23T06:57:03.922Z,6.40
2023-05-23T06:59:30.668Z,6.32
2023-05-23T07:01:57.712Z,5.70
2023-05-23T07:04:24.490Z,5.63
2023-05-23T07:06:52.702Z,6.03
2023-05-23T07:09:19.872Z,5.95
2023-05-23T07:11:46.638Z,5.90
2023-05-23T07:14:13.482Z,5.78
2023-05-23T07:16:40.357Z,6.05
2023-05-23T07:19:07.286Z,5.40
2023-05-23T07:21:34.080Z,5.20
2023-05-23T07:24:00.979Z,5.88
2023-05-23T07:26:27.924Z,5.13
2023-05-23T07:28:54.881Z,6.10
2023-05-23T07:31:21.849Z,5.72
2023-05-23T07:33:48.784Z,5.72
2023-05-23T07:36:16.545Z,4.90
2023-05-23T07:38:43.342Z,5.13
2023-05-23T07:41:12.361Z,5.35
2023-05-23T07:43:39.843Z,7.00
2023-05-23T07:46:06.806Z,5.72
2023-05-23T07:48:33.661Z,5.70
2023-05-23T07:51:01.160Z,4.72
2023-05-23T07:53:28.057Z,5.20
2023-05-23T07:55:54.827Z,5.20
2023-05-23T07:58:21.632Z,5.55
2023-05-23T08:00:49.885Z,5.07
2023-05-23T08:03:19.297Z,4.97
2023-05-23T08:05:47.335Z,6.03
2023-05-23T08:08:14.275Z,6.20
2023-05-23T08:10:41.601Z,5.75
2023-05-23T08:13:11.584Z,5.15
2023-05-23T08:15:38.493Z,4.75
2023-05-23T08:18:06.045Z,5.72
2023-05-23T08:20:32.968Z,5.18
2023-05-23T08:23:00.922Z,5.25
2023-05-23T08:25:32.441Z,5.47
2023-05-23T08:28:00.583Z,5.03
2023-05-23T08:30:28.604Z,4.60
2023-05-23T08:32:57.177Z,4.93
2023-05-23T08:35:24.489Z,4.65
2023-05-23T08:37:52.614Z,5.15
2023-05-23T08:40:24.739Z,5.18
2023-05-23T08:42:51.664Z,5.00
2023-05-23T08:45:18.805Z,5.13
2023-05-23T08:47:47.496Z,5.05
2023-05-23T08:50:17.144Z,5.60
2023-05-23T08:52:50.456Z,5.60
2023-05-23T08:55:17.880Z,5.00
2023-05-23T08:57:45.714Z,5.90
2023-05-23T09:00:15.118Z,4.80
2023-05-23T09:02:46.250Z,5.05
2023-05-23T09:05:14.688Z,5.70
2023-05-23T09:07:41.999Z,5.45
2023-05-23T09:10:10.558Z,4.57
2023-05-23T09:12:38.027Z,5.95
2023-05-23T09:15:09.464Z,4.88
2023-05-23T09:17:37.996Z,4.70
2023-05-23T09:20:13.231Z,5.68
2023-05-23T09:22:40.468Z,4.32
2023-05-23T09:25:08.580Z,4.72
2023-05-23T09:27:36.132Z,4.07
2023-05-23T09:30:07.210Z,4.57
2023-05-23T09:33:03.939Z,5.30
2023-05-23T09:35:31.949Z,4.45
2023-05-23T09:38:02.064Z,4.00
2023-05-23T09:40:33.138Z,3.92
2023-05-23T09:43:04.836Z,4.00
2023-05-23T09:45:32.896Z,4.97
2023-05-23T09:47:59.960Z,4.63
2023-05-23T09:50:33.542Z,4.40
2023-05-23T09:53:01.519Z,4.70
2023-05-23T09:55:28.343Z,4.72
2023-05-23T09:57:58.979Z,5.20
2023-05-23T10:00:26.060Z,4.82
2023-05-23T10:03:12.718Z,5.13
2023-05-23T10:05:54.252Z,4.97
2023-05-23T10:08:23.928Z,5.60
2023-05-23T10:10:56.822Z,5.68
2023-05-23T10:13:28.162Z,5.75
2023-05-23T10:16:36.816Z,5.90
2023-05-23T10:19:10.485Z,5.75
2023-05-23T10:21:47.007Z,6.10
2023-05-23T10:24:15.595Z,4.90
2023-05-23T10:26:44.546Z,5.30
2023-05-23T10:29:11.350Z,5.15
2023-05-23T10:31:39.165Z,4.80
2023-05-23T10:34:24.324Z,4.80
2023-05-23T10:36:59.097Z,5.15
2023-05-23T10:39:50.330Z,5.35
2023-05-23T10:42:30.908Z,5.50
2023-05-23T10:45:17.482Z,5.63
2023-05-23T10:47:44.367Z,5.95
2023-05-23T10:50:29.999Z,6.10
2023-05-23T10:52:57.548Z,6.22
2023-05-23T10:55:24.535Z,6.22
2023-05-23T10:58:20.552Z,6.43
2023-05-23T11:00:54.370Z,7.45
2023-05-23T11:03:47.452Z,7.07
2023-05-23T11:06:38.881Z,6.63
2023-05-23T11:09:25.927Z,7.25
2023-05-23T11:11:58.190Z,6.95
2023-05-23T11:14:40.742Z,9.55
2023-05-23T11:17:13.547Z,7.30
2023-05-23T11:19:40.640Z,8.27
2023-05-23T11:22:10.305Z,7.88
2023-05-23T11:24:52.503Z,9.50
2023-05-23T11:27:29.409Z,11.02
2023-05-23T11:30:07.938Z,9.63
2023-05-23T11:32:35.831Z,8.80
2023-05-23T11:35:07.426Z,8.73
2023-05-23T11:37:34.556Z,8.68
2023-05-23T11:40:27.243Z,9.27
2023-05-23T11:42:54.941Z,8.93
2023-05-23T11:45:23.325Z,9.77
2023-05-23T11:47:50.237Z,9.43
2023-05-23T11:50:17.224Z,14.50
2023-05-23T11:52:44.760Z,10.15
2023-05-23T11:55:11.605Z,10.00
2023-05-23T11:57:41.228Z,10.43
2023-05-23T12:00:09.605Z,9.65
2023-05-23T12:02:40.942Z,9.50
2023-05-23T12:05:13.837Z,8.93
2023-05-23T12:07:47.155Z,8.95
2023-05-23T12:10:19.995Z,8.90
2023-05-23T12:12:47.237Z,8.98
2023-05-23T12:15:14.039Z,10.63
2023-05-23T12:17:48.078Z,11.25
2023-05-23T12:20:15.233Z,9.43
2023-05-23T12:22:43.048Z,8.20
2023-05-23T12:25:12.975Z,9.82
2023-05-23T12:27:43.943Z,14.57
2023-05-23T12:30:16.474Z,9.30
2023-05-23T12:32:45.549Z,8.77
2023-05-23T12:35:16.003Z,8.10
2023-05-23T12:37:46.541Z,8.82
2023-05-23T12:40:18.185Z,11.60
2023-05-23T12:42:54.512Z,8.90
2023-05-23T12:45:35.037Z,9.05
2023-05-23T12:48:06.165Z,9.85
2023-05-23T12:50:33.517Z,9.25
2023-05-23T12:53:00.307Z,9.95
2023-05-23T12:55:27.385Z,10.00
2023-05-23T12:57:54.915Z,9.05
2023-05-23T13:00:21.785Z,9.30
2023-05-23T13:02:49.466Z,9.20
2023-05-23T13:05:16.320Z,8.77
2023-05-23T13:07:44.156Z,8.95
2023-05-23T13:10:11.359Z,8.23
2023-05-23T13:12:38.562Z,7.10
2023-05-23T13:15:06.569Z,6.80
2023-05-23T13:17:33.836Z,7.30
2023-05-23T13:20:01.271Z,8.52
2023-05-23T13:22:29.090Z,7.97
2023-05-23T13:24:56.092Z,7.97
2023-05-23T13:27:22.869Z,8.23
2023-05-23T13:29:49.720Z,8.88
2023-05-23T13:32:16.616Z,7.40
2023-05-23T13:34:43.435Z,6.93
2023-05-23T13:37:10.405Z,6.65
2023-05-23T13:39:37.200Z,6.80
2023-05-23T13:42:04.202Z,6.95
2023-05-23T13:44:34.076Z,6.40
2023-05-23T13:47:13.537Z,6.70
2023-05-23T13:49:41.566Z,7.82
2023-05-23T13:52:08.483Z,10.52
2023-05-23T13:54:36.018Z,10.88
2023-05-23T13:57:02.868Z,6.88
2023-05-23T13:59:29.822Z,8.15
2023-05-23T14:01:56.727Z,9.27
2023-05-23T14:04:23.635Z,7.43
2023-05-23T14:06:51.085Z,7.45
2023-05-23T14:09:18.187Z,8.90
2023-05-23T14:11:45.215Z,7.60
2023-05-23T14:14:12.049Z,8.38
2023-05-23T14:16:38.883Z,8.52
2023-05-23T14:19:05.882Z,9.07
2023-05-23T14:21:33.966Z,8.73
2023-05-23T14:24:00.836Z,7.85
2023-05-23T14:26:27.628Z,11.95
2023-05-23T14:28:54.547Z,11.13
2023-05-23T14:31:22.028Z,12.02
2023-05-23T14:33:50.013Z,11.57
2023-05-23T14:36:17.178Z,9.75
2023-05-23T14:38:46.713Z,10.43
2023-05-23T14:41:16.441Z,10.18
2023-05-23T14:43:43.420Z,9.88
2023-05-23T14:46:10.455Z,10.05
2023-05-23T14:48:37.625Z,9.13
2023-05-23T14:51:04.659Z,8.55
2023-05-23T14:53:32.078Z,8.68
2023-05-23T14:55:59.441Z,9.23
2023-05-23T14:58:26.265Z,8.25
2023-05-23T15:00:53.125Z,9.15
2023-05-23T15:03:20.073Z,8.65
2023-05-23T15:05:49.019Z,8.85
2023-05-23T15:08:17.069Z,8.05
2023-05-23T15:10:45.274Z,8.90
2023-05-23T15:13:13.115Z,9.43
2023-05-23T15:15:41.132Z,8.10
2023-05-23T15:18:10.096Z,8.10
2023-05-23T15:20:37.222Z,7.50
2023-05-23T15:23:05.164Z,8.00
2023-05-23T15:25:48.064Z,8.80
2023-05-23T15:28:16.630Z,7.78
2023-05-23T15:30:44.112Z,8.75
2023-05-23T15:33:12.894Z,8.15
2023-05-23T15:35:39.900Z,8.10
2023-05-23T15:38:07.034Z,8.52
2023-05-23T15:40:33.952Z,8.65
2023-05-23T15:43:00.928Z,8.15
2023-05-23T15:45:27.707Z,8.85
2023-05-23T15:47:54.509Z,8.93
2023-05-23T15:50:21.494Z,8.40
2023-05-23T15:52:48.257Z,8.63
2023-05-23T15:55:15.060Z,9.18
2023-05-23T15:57:41.834Z,9.20
2023-05-23T16:00:09.595Z,9.18
2023-05-23T16:02:36.395Z,8.98
2023-05-23T16:05:03.205Z,9.15
2023-05-23T16:07:30.392Z,9.98
2023-05-23T16:09:57.199Z,8.77
2023-05-23T16:12:23.995Z,9.05
2023-05-23T16:14:50.949Z,9.23
2023-05-23T16:17:17.665Z,9.35
2023-05-23T16:19:44.433Z,9.45
2023-05-23T16:22:11.463Z,9.75
2023-05-23T16:24:38.256Z,8.43
2023-05-23T16:27:05.442Z,9.35
2023-05-23T16:29:32.288Z,9.27
2023-05-23T16:31:59.196Z,9.75
2023-05-23T16:34:26.258Z,9.55
2023-05-23T16:36:53.136Z,9.40
2023-05-23T16:39:19.899Z,9.85
2023-05-23T16:41:46.787Z,10.00
2023-05-23T16:44:13.776Z,9.90
2023-05-23T16:46:40.659Z,10.32
2023-05-23T16:49:11.100Z,10.10
2023-05-23T16:51:37.906Z,10.25
2023-05-23T16:54:04.873Z,10.68
2023-05-23T16:56:31.674Z,10.80
2023-05-23T16:58:58.452Z,9.73
2023-05-23T17:01:25.743Z,10.10
2023-05-23T17:03:53.457Z,9.68
2023-05-23T17:06:20.458Z,9.57
2023-05-23T17:08:47.217Z,9.32
2023-05-23T17:11:14.103Z,9.15
2023-05-23T17:13:41.416Z,8.82
2023-05-23T17:16:08.290Z,8.23
2023-05-23T17:18:35.234Z,7.82
2023-05-23T17:21:02.232Z,7.82
2023-05-23T17:23:29.097Z,7.65
2023-05-23T17:25:55.857Z,7.35
2023-05-23T17:28:23.172Z,7.68
2023-05-23T17:30:51.679Z,7.30
2023-05-23T17:33:18.762Z,7.65
2023-05-23T17:35:45.811Z,8.13
2023-05-23T17:38:12.586Z,7.10
2023-05-23T17:40:39.628Z,7.88
2023-05-23T17:43:08.090Z,8.02
2023-05-23T17:45:34.936Z,7.85
2023-05-23T17:48:03.635Z,7.78
2023-05-23T17:50:31.067Z,8.20
2023-05-23T17:52:57.992Z,8.27
2023-05-23T17:55:24.924Z,7.75
2023-05-23T17:57:51.701Z,8.30
2023-05-23T18:00:18.802Z,7.45
2023-05-23T18:02:45.790Z,7.32
2023-05-23T18:05:12.648Z,7.70
2023-05-23T18:07:39.487Z,7.75
2023-05-23T18:10:08.390Z,7.88
2023-05-23T18:12:35.517Z,7.90
2023-05-23T18:15:02.568Z,8.35
2023-05-23T18:17:31.253Z,7.57
2023-05-23T18:19:58.541Z,8.13
2023-05-23T18:22:25.644Z,7.97
2023-05-23T18:24:52.396Z,7.63
2023-05-23T18:27:19.203Z,7.80
2023-05-23T18:29:45.953Z,7.07
2023-05-23T18:32:14.513Z,8.35
2023-05-23T18:34:41.550Z,8.40
2023-05-23T18:37:08.417Z,8.23
2023-05-23T18:39:35.182Z,8.35
2023-05-23T18:42:08.141Z,7.55
2023-05-23T18:44:35.284Z,8.20
2023-05-23T18:47:02.174Z,6.70
2023-05-23T18:49:28.991Z,7.97
2023-05-23T18:51:58.408Z,7.47
2023-05-23T18:54:25.345Z,7.57
2023-05-23T18:56:52.225Z,8.05
2023-05-23T18:59:19.043Z,7.43
2023-05-23T19:01:45.836Z,7.80
2023-05-23T19:04:13.213Z,7.90
2023-05-23T19:06:40.032Z,7.40
2023-05-23T19:09:09.668Z,7.10
2023-05-23T19:11:37.472Z,7.05
2023-05-23T19:14:04.346Z,7.00
2023-05-23T19:16:31.528Z,7.60
2023-05-23T19:18:58.368Z,7.15
2023-05-23T19:21:25.499Z,6.75
2023-05-23T19:23:52.370Z,7.07
2023-05-23T19:26:20.496Z,7.18
2023-05-23T19:28:49.691Z,8.27
2023-05-23T19:31:16.875Z,6.75
2023-05-23T19:33:43.780Z,7.18
2023-05-23T19:36:10.646Z,6.68
2023-05-23T19:38:37.402Z,7.00
2023-05-23T19:41:04.225Z,6.22
2023-05-23T19:43:31.166Z,6.70
2023-05-23T19:45:58.080Z,7.07
2023-05-23T19:48:24.935Z,7.07
2023-05-23T19:50:51.757Z,6.65
2023-05-23T19:53:18.726Z,6.53
2023-05-23T19:55:45.661Z,6.75
2023-05-23T19:58:12.448Z,6.88
2023-05-23T20:00:39.383Z,6.88
2023-05-23T20:03:06.975Z,7.35
2023-05-23T20:05:33.921Z,6.18
2023-05-23T20:08:01.567Z,7.03
2023-05-23T20:10:28.353Z,7.05
2023-05-23T20:12:55.087Z,6.80
2023-05-23T20:15:38.088Z,7.00
2023-05-23T20:18:07.685Z,6.95
2023-05-23T20:20:34.637Z,6.85
2023-05-23T20:23:01.470Z,6.38
2023-05-23T20:25:28.563Z,6.75
2023-05-23T20:27:56.622Z,6.78
2023-05-23T20:30:23.559Z,6.28
2023-05-23T20:32:53.583Z,7.32
2023-05-23T20:35:22.370Z,7.07
2023-05-23T20:37:51.841Z,6.90
2023-05-23T20:40:18.706Z,7.53
2023-05-23T20:42:47.046Z,7.63
2023-05-23T20:45:13.983Z,7.03
2023-05-23T20:47:43.789Z,6.65
2023-05-23T20:50:12.738Z,6.45
2023-05-23T20:52:42.822Z,6.50
2023-05-23T20:55:10.767Z,6.88
2023-05-23T20:57:37.768Z,7.05
2023-05-23T21:00:12.492Z,7.25
2023-05-23T21:02:43.356Z,7.03
2023-05-23T21:05:12.154Z,7.40
2023-05-23T21:07:39.539Z,6.95
2023-05-23T21:10:06.907Z,7.57
2023-05-23T21:12:33.922Z,7.55
2023-05-23T21:15:00.781Z,7.53
2023-05-23T21:17:27.782Z,7.97
2023-05-23T21:19:54.620Z,8.20
2023-05-23T21:22:21.472Z,8.00
2023-05-23T21:24:48.406Z,8.20
2023-05-23T21:27:15.354Z,7.40
2023-05-23T21:29:42.656Z,7.53
2023-05-23T21:32:09.484Z,8.52
2023-05-23T21:34:36.255Z,7.63
2023-05-23T21:37:03.093Z,7.18
2023-05-23T21:39:43.061Z,7.25
2023-05-23T21:42:14.311Z,7.85
2023-05-23T21:44:41.223Z,7.13
2023-05-23T21:47:08.245Z,7.28
2023-05-23T21:49:35.589Z,7.63
2023-05-23T21:52:02.828Z,8.35
2023-05-23T21:54:29.829Z,7.85
2023-05-23T21:56:56.867Z,7.30
2023-05-23T21:59:23.859Z,8.18
2023-05-23T22:01:51.299Z,8.15
2023-05-23T22:04:21.058Z,7.80
2023-05-23T22:06:47.821Z,8.18
2023-05-23T22:09:15.544Z,7.85
2023-05-23T22:11:43.042Z,7.93
2023-05-23T22:14:10.318Z,8.07
2023-05-23T22:16:40.362Z,8.35
2023-05-23T22:19:09.884Z,8.38
2023-05-23T22:21:37.095Z,7.88
2023-05-23T22:24:04.367Z,8.20
2023-05-23T22:26:31.153Z,8.10
2023-05-23T22:28:58.119Z,8.30
2023-05-23T22:31:25.027Z,8.35
2023-05-23T22:33:51.934Z,8.45
2023-05-23T22:36:18.741Z,7.93
2023-05-23T22:38:45.815Z,7.82
2023-05-23T22:41:12.969Z,8.10
2023-05-23T22:43:39.993Z,7.85
2023-05-23T22:46:07.310Z,8.27
2023-05-23T22:48:34.375Z,8.95
2023-05-23T22:51:02.564Z,8.35
2023-05-23T22:53:30.190Z,8.68
2023-05-23T22:55:57.441Z,9.32
2023-05-23T22:58:24.356Z,9.10
2023-05-23T23:00:51.386Z,9.35
2023-05-23T23:03:18.527Z,9.43
2023-05-23T23:05:45.607Z,9.00
2023-05-23T23:08:12.808Z,9.13
2023-05-23T23:10:41.533Z,9.07
2023-05-23T23:13:08.815Z,9.07
2023-05-23T23:15:36.772Z,8.73
2023-05-23T23:18:05.944Z,8.95
2023-05-23T23:20:33.222Z,9.50
2023-05-23T23:23:00.677Z,8.68
2023-05-23T23:25:27.415Z,9.02
2023-05-23T23:27:54.221Z,8.68
2023-05-23T23:30:21.124Z,9.25
2023-05-23T23:32:48.107Z,8.88
2023-05-23T23:35:15.165Z,8.20
2023-05-23T23:37:42.117Z,9.15
2023-05-23T23:40:10.060Z,8.73
2023-05-23T23:42:36.864Z,8.45
2023-05-23T23:45:04.742Z,8.65
2023-05-23T23:47:32.723Z,8.15
2023-05-23T23:49:59.614Z,7.95
2023-05-23T23:52:28.129Z,7.95
2023-05-23T23:54:55.049Z,7.93
2023-05-23T23:57:21.951Z,7.07
2023-05-23T23:59:49.329Z,6.72
